San Andres de Giles, Argentina
Current Conditions -  °F | °C
As of 3:00 PM on Saturday 25 Oct 2014 (Local Time) from SADF Reporting Station
Few Clouds Few Clouds  
Wind Chill: 84°   Ceiling: Unl
Heat Index: 85°   Visibility: 6mi
Dew Point: 63°   Wind: 8mph
Humidity: 48%   Direction: 50°NE
Pressure: 29.88"   Gusts: NA
Location:  34.45°S, 59.45°W
Report Text: SADF 251800Z 05007KT 9999 FEW030 29/17 Q1012
Loading
Personal Weather Stations






























Interactive Weather Map
Tropical Storm Tracking
New forecast layout! Learn more

10-Day Weather Forecast

Advertisements
Track Severe Weather on mobile